createdAt,value
2023-01-07T00:00:30.401Z,31.38
2023-01-07T00:05:31.985Z,29.25
2023-01-07T00:10:34.780Z,28.52
2023-01-07T00:15:36.347Z,28.52
2023-01-07T00:20:37.893Z,27.08
2023-01-07T00:25:39.455Z,25.90
2023-01-07T00:30:40.995Z,23.83
2023-01-07T00:35:44.936Z,22.73
2023-01-07T00:40:46.439Z,21.23
2023-01-07T00:45:47.993Z,20.02
2023-01-07T00:50:51.487Z,21.10
2023-01-07T00:55:53.060Z,18.85
2023-01-07T01:00:59.585Z,20.38
2023-01-07T01:06:06.613Z,23.42
2023-01-07T01:11:09.859Z,21.03
2023-01-07T01:16:14.097Z,22.58
2023-01-07T01:21:16.353Z,24.02
2023-01-07T01:26:17.977Z,22.80
2023-01-07T01:31:19.540Z,22.00
2023-01-07T01:36:21.176Z,22.08
2023-01-07T01:41:23.228Z,22.73
2023-01-07T01:46:39.693Z,21.08
2023-01-07T01:51:46.383Z,22.92
2023-01-07T01:56:51.123Z,21.13
2023-01-07T02:01:53.562Z,23.05
2023-01-07T02:07:04.018Z,23.40
2023-01-07T02:12:26.472Z,19.05
2023-01-07T02:18:11.062Z,16.02
2023-01-07T02:23:40.354Z,15.10
2023-01-07T02:29:01.041Z,16.92
2023-01-07T02:34:34.926Z,13.93
2023-01-07T02:39:51.072Z,16.70
2023-01-07T02:45:19.867Z,18.48
2023-01-07T02:50:21.380Z,19.33
2023-01-07T02:55:30.765Z,16.55
2023-01-07T03:00:39.698Z,17.10
2023-01-07T03:05:53.380Z,17.85
2023-01-07T03:11:05.589Z,18.67
2023-01-07T03:16:23.907Z,16.60
2023-01-07T03:21:28.263Z,19.13
2023-01-07T03:26:42.338Z,17.25
2023-01-07T03:31:57.389Z,19.00
2023-01-07T03:37:04.750Z,19.58
2023-01-07T03:42:26.806Z,19.75
2023-01-07T03:47:29.035Z,18.73
2023-01-07T03:52:30.624Z,24.13
2023-01-07T03:57:33.243Z,24.90
2023-01-07T04:02:34.949Z,23.35
2023-01-07T04:07:36.937Z,22.20
2023-01-07T04:12:38.427Z,20.00
2023-01-07T04:17:39.938Z,21.48
2023-01-07T04:22:41.732Z,20.98
2023-01-07T04:27:43.217Z,23.73
2023-01-07T04:32:44.765Z,24.23
2023-01-07T04:37:46.298Z,21.90
2023-01-07T04:42:47.810Z,22.92
2023-01-07T04:47:49.368Z,20.15
2023-01-07T04:52:51.246Z,19.48
2023-01-07T04:57:52.771Z,20.58
2023-01-07T05:02:54.287Z,23.02
2023-01-07T05:07:55.838Z,22.02
2023-01-07T05:12:57.377Z,17.30
2023-01-07T05:17:58.883Z,19.05
2023-01-07T05:23:00.422Z,16.38
2023-01-07T05:28:02.044Z,17.13
2023-01-07T05:33:07.124Z,15.70
2023-01-07T05:38:08.631Z,21.10
2023-01-07T05:43:10.161Z,16.83
2023-01-07T05:48:12.602Z,20.70
2023-01-07T05:53:14.196Z,20.83
2023-01-07T05:58:15.701Z,18.70
2023-01-07T06:03:17.273Z,20.45
2023-01-07T06:08:18.739Z,23.25
2023-01-07T06:13:20.251Z,21.75
2023-01-07T06:18:21.741Z,20.75
2023-01-07T06:23:23.723Z,18.33
2023-01-07T06:28:25.323Z,23.33
2023-01-07T06:33:26.855Z,21.13
2023-01-07T06:38:28.394Z,19.02
2023-01-07T06:43:30.361Z,21.20
2023-01-07T06:48:31.960Z,21.45
2023-01-07T06:53:33.535Z,17.58
2023-01-07T06:58:35.089Z,20.60
2023-01-07T07:03:36.625Z,15.80
2023-01-07T07:08:38.139Z,14.63
2023-01-07T07:13:39.665Z,14.50
2023-01-07T07:18:41.169Z,15.00
2023-01-07T07:23:42.679Z,13.75
2023-01-07T07:28:44.759Z,14.07
2023-01-07T07:33:46.246Z,11.95
2023-01-07T07:38:47.776Z,11.15
2023-01-07T07:43:49.605Z,15.73
2023-01-07T07:48:51.171Z,9.27
2023-01-07T07:53:52.691Z,9.82
2023-01-07T07:58:54.184Z,12.60
2023-01-07T08:03:55.868Z,12.32
2023-01-07T08:08:57.365Z,12.20
2023-01-07T08:13:58.881Z,10.60
2023-01-07T08:19:00.433Z,9.20
2023-01-07T08:24:01.978Z,9.45
2023-01-07T08:29:03.578Z,7.53
2023-01-07T08:34:05.116Z,6.57
2023-01-07T08:39:06.649Z,10.55
2023-01-07T08:44:08.141Z,8.20
2023-01-07T08:49:10.727Z,5.00
2023-01-07T08:54:12.245Z,5.65
2023-01-07T08:59:13.721Z,6.35
2023-01-07T09:04:15.236Z,5.70
2023-01-07T09:09:17.555Z,7.63
2023-01-07T09:14:19.072Z,3.58
2023-01-07T09:19:20.714Z,4.70
2023-01-07T09:24:22.260Z,5.72
2023-01-07T09:29:23.731Z,7.20
2023-01-07T09:34:25.201Z,3.63
2023-01-07T09:39:26.766Z,6.55
2023-01-07T09:44:59.202Z,6.03
2023-01-07T09:50:14.123Z,3.95
2023-01-07T09:55:27.504Z,3.45
2023-01-07T10:00:31.792Z,3.78
2023-01-07T10:05:33.229Z,4.72
2023-01-07T10:10:46.752Z,2.35
2023-01-07T10:16:11.473Z,3.03
2023-01-07T10:21:20.970Z,2.00
2023-01-07T10:26:33.505Z,3.83
2023-01-07T10:31:36.374Z,2.67
2023-01-07T10:36:46.403Z,3.97
2023-01-07T10:42:11.953Z,2.05
2023-01-07T10:47:38.290Z,3.53
2023-01-07T10:53:03.014Z,3.85
2023-01-07T10:58:04.983Z,4.00
2023-01-07T11:03:16.369Z,2.35
2023-01-07T11:08:29.054Z,2.03
2023-01-07T11:13:33.034Z,1.88
2023-01-07T11:18:51.568Z,0.93
2023-01-07T11:23:53.147Z,1.67
2023-01-07T11:28:58.064Z,1.85
2023-01-07T11:34:01.559Z,1.52
2023-01-07T11:39:11.923Z,2.72
2023-01-07T11:44:16.329Z,2.47
2023-01-07T11:49:27.635Z,2.38
2023-01-07T11:54:29.905Z,1.45
2023-01-07T11:59:31.481Z,1.58
2023-01-07T12:04:35.904Z,2.95
2023-01-07T12:09:39.925Z,2.95
2023-01-07T12:14:47.503Z,2.35
2023-01-07T12:25:22.876Z,1.48
2023-01-07T12:30:24.458Z,2.25
2023-01-07T12:35:47.827Z,2.42
2023-01-07T12:40:57.708Z,2.50
2023-01-07T12:46:02.526Z,1.60
2023-01-07T12:51:22.694Z,2.00
2023-01-07T12:56:29.041Z,4.18
2023-01-07T13:01:36.803Z,5.30
2023-01-07T13:06:44.896Z,6.82
2023-01-07T13:12:42.108Z,2.25
2023-01-07T13:17:32.496Z,2.60
2023-01-07T13:22:53.139Z,2.15
2023-01-07T13:28:19.386Z,1.88
2023-01-07T13:33:39.997Z,1.50
2023-01-07T13:39:19.015Z,1.70
2023-01-07T13:44:38.656Z,2.72
2023-01-07T13:49:41.075Z,1.63
2023-01-07T13:55:01.459Z,2.72
2023-01-07T14:00:06.989Z,1.83
2023-01-07T14:05:11.603Z,5.13
2023-01-07T14:10:32.585Z,1.77
2023-01-07T14:16:09.381Z,2.10
2023-01-07T14:21:26.492Z,3.28
2023-01-07T14:26:54.996Z,8.10
2023-01-07T14:32:22.815Z,7.22
2023-01-07T14:37:38.324Z,12.90
2023-01-07T14:42:44.441Z,6.53
2023-01-07T14:47:46.193Z,2.08
2023-01-07T14:53:09.057Z,2.38
2023-01-07T14:58:28.433Z,1.77
2023-01-07T15:03:48.855Z,3.55
2023-01-07T15:09:29.325Z,3.72
2023-01-07T15:14:59.276Z,3.38
2023-01-07T15:20:05.800Z,4.32
2023-01-07T15:25:14.930Z,2.25
2023-01-07T15:30:38.062Z,6.20
2023-01-07T15:35:43.091Z,5.15
2023-01-07T15:40:46.921Z,5.20
2023-01-07T15:45:49.718Z,3.90
2023-01-07T15:50:51.892Z,2.08
2023-01-07T15:56:03.944Z,5.00
2023-01-07T16:01:07.770Z,4.03
2023-01-07T16:06:39.284Z,3.22
2023-01-07T16:11:40.850Z,3.47
2023-01-07T16:16:42.485Z,3.58
2023-01-07T16:21:53.166Z,3.80
2023-01-07T16:27:05.595Z,2.75
2023-01-07T16:32:07.826Z,2.58
2023-01-07T16:37:15.761Z,2.35
2023-01-07T16:42:19.909Z,2.50
2023-01-07T16:47:27.145Z,3.33
2023-01-07T16:52:49.615Z,3.80
2023-01-07T16:57:51.131Z,2.35
2023-01-07T17:02:59.689Z,4.32
2023-01-07T17:08:05.773Z,4.35
2023-01-07T17:13:31.996Z,4.90
2023-01-07T17:18:34.565Z,5.00
2023-01-07T17:23:42.234Z,5.78
2023-01-07T17:33:48.219Z,5.57
2023-01-07T17:38:50.007Z,4.13
2023-01-07T17:43:51.518Z,5.45
2023-01-07T17:48:53.603Z,4.35
2023-01-07T17:53:58.928Z,3.72
2023-01-07T17:59:00.568Z,4.22
2023-01-07T18:04:02.105Z,7.63
2023-01-07T18:09:04.919Z,7.47
2023-01-07T18:14:06.923Z,9.70
2023-01-07T18:19:12.273Z,10.35
2023-01-07T18:24:19.650Z,12.32
2023-01-07T18:29:21.196Z,5.25
2023-01-07T18:34:22.733Z,9.25
2023-01-07T18:39:24.245Z,6.22
2023-01-07T18:44:25.983Z,8.88
2023-01-07T18:49:27.529Z,7.65
2023-01-07T18:54:31.340Z,7.10
2023-01-07T18:59:32.874Z,10.52
2023-01-07T19:04:37.416Z,9.40
2023-01-07T19:09:39.021Z,6.57
2023-01-07T19:14:40.920Z,7.65
2023-01-07T19:19:48.282Z,6.10
2023-01-07T19:24:50.479Z,5.57
2023-01-07T19:29:52.019Z,6.38
2023-01-07T19:34:53.525Z,5.13
2023-01-07T19:39:54.985Z,6.15
2023-01-07T19:44:56.552Z,6.68
2023-01-07T19:49:58.037Z,5.22
2023-01-07T19:54:59.574Z,9.90
2023-01-07T20:00:01.768Z,4.72
2023-01-07T20:05:03.326Z,7.15
2023-01-07T20:10:05.075Z,8.00
2023-01-07T20:15:07.260Z,6.90
2023-01-07T20:20:09.868Z,4.53
2023-01-07T20:25:12.294Z,6.13
2023-01-07T20:30:13.865Z,6.70
2023-01-07T20:35:15.399Z,9.45
2023-01-07T20:40:16.931Z,9.27
2023-01-07T20:45:18.499Z,8.48
2023-01-07T20:50:19.972Z,7.72
2023-01-07T20:55:21.512Z,8.32
2023-01-07T21:00:23.035Z,11.05
2023-01-07T21:05:24.675Z,8.40
2023-01-07T21:10:26.351Z,11.40
2023-01-07T21:15:28.447Z,7.53
2023-01-07T21:20:30.439Z,7.22
2023-01-07T21:25:32.013Z,7.53
2023-01-07T21:30:33.991Z,7.18
2023-01-07T21:35:39.417Z,6.10
2023-01-07T21:40:40.994Z,6.28
2023-01-07T21:45:42.506Z,8.23
2023-01-07T21:50:44.009Z,6.68
2023-01-07T21:55:45.571Z,8.00
2023-01-07T22:00:53.098Z,5.63
2023-01-07T22:10:59.670Z,5.95
2023-01-07T22:16:04.894Z,6.70
2023-01-07T22:21:06.496Z,8.07
2023-01-07T22:26:08.491Z,5.75
2023-01-07T22:31:20.975Z,8.43
2023-01-07T22:36:34.541Z,7.93
2023-01-07T22:41:37.111Z,10.38
2023-01-07T22:46:40.689Z,8.65
2023-01-07T22:51:45.589Z,8.15
2023-01-07T22:56:48.033Z,7.43
2023-01-07T23:01:49.553Z,8.23
2023-01-07T23:06:51.067Z,9.60
2023-01-07T23:11:54.758Z,6.50
2023-01-07T23:16:56.640Z,7.63
2023-01-07T23:21:58.094Z,8.93
2023-01-07T23:26:59.675Z,7.45
2023-01-07T23:32:01.271Z,8.90
2023-01-07T23:37:02.910Z,8.90
2023-01-07T23:42:04.430Z,6.47
2023-01-07T23:47:06.013Z,7.75
2023-01-07T23:52:07.577Z,7.75
2023-01-07T23:57:09.534Z,8.15
